Air Navigation Services of Czech Republic
Airport: LKMT Updated:  03.10.2022 11:02:32  UTC
 METAR LKMT 03.10. 11:00 ...
METAR LKMT 031100Z 30008G18KT 260V330 9999 -RA FEW027 BKN038 BKN049 13/09 Q1018 NOSIG=
 TAF LKMT 03.10. 11:00 ...
TAF LKMT 031100Z 0312/0418 30010KT 9999 BKN035      TEMPO 0312/0320 32015G25KT      TEMPO 0312/0413 SHRA BKN018      PROB30 TEMPO 0312/0318 4000 SHRA SCT020TCU      BECMG 0323/0401 25005KT      BECMG 0413/0415 CAVOK=